kaitao.cn alexa rank chart, kaitao.cn alexa rank daily changes

kaitao.cn alexa rank chart, kaitao.cn alexa rank daily changes

kaitao.cn
Actual rank:
22 964

RANK HISTORY

Date Rank Diff
2017/08/19 22 964 -45
2017/08/17 23 009 -495
2017/08/16 23 504 -428
2017/08/15 23 932 -439
2017/08/14 24 371 -273
2017/08/13 24 644 -191
2017/08/12 24 835 -160
2017/08/11 24 995 +402
2017/08/10 24 593 +104
2017/08/09 24 489 -235
2017/08/08 24 724 -170
2017/08/07 24 894 -1 462
2017/08/06 26 356 -54
2017/08/05 26 410 -392
2017/08/04 26 802 -656
2017/08/03 27 458 -987
2017/08/02 28 445 -377
2017/08/01 28 822 +402
2017/07/31 28 420 -51
2017/07/30 28 471 +858
2017/07/29 27 613 -4
2017/07/28 27 617 +65
2017/07/27 27 552 -595
2017/07/26 28 147 -135
2017/07/25 28 282 -1 557
2017/07/24 29 839 -299
2017/07/23 30 138 +551
2017/07/22 29 587 -291
2017/07/21 29 878 +327
2017/07/20 29 551 -806
2017/07/19 30 357 -301
2017/07/18 30 658 +350
2017/07/17 30 308 +38
2017/07/16 30 270 +97
2017/07/15 30 173 +211
2017/07/14 29 962 +33
2017/07/13 29 929 -442
2017/07/12 30 371 -106
2017/07/11 30 477 -546
2017/07/10 31 023 -360
2017/07/09 31 383 +11
2017/07/08 31 372 -318
2017/07/07 31 690 +276
2017/07/06 31 414 +9
2017/07/05 31 405 +21
2017/07/04 31 384 -209
2017/07/03 31 593 +1 031
2017/07/02 30 562 +218
2017/07/01 30 344 +336
2017/06/30 30 008 -1 363
2017/06/29 31 371 +197
2017/06/28 31 174 +121
2017/06/27 31 053 -362
2017/06/26 31 415 -636
2017/06/25 32 051 -291
2017/06/24 32 342 -588
2017/06/23 32 930 +185
2017/06/22 32 745 -593
2017/06/21 33 338 +4
2017/06/20 33 334

WIDGET FOR YOUR SITE

DOMAINS WITH THE NEAREST RANK

Domain Rank
bn-ent.net 22 959
utm.edu 22 960
123helpme.com 22 961
pandatv.com 22 962
webinarjam.com 22 963
kaitao.cn 22 964
milanoo.com 22 965
233.com 22 966
cao0001.com 22 967
csu.edu.au 22 968
phantasytour.com 22 969

DOMAINS WITH THE NEAREST RANK BY TLD .cn

Domain Rank
chinafloor.cn 22 670
nubia.cn 22 760
apowersoft.cn 22 831
urlshare.cn 22 890
zting.cn 22 898
kaitao.cn 22 964
airbnbchina.cn 23 019
3156.cn 23 129
medlive.cn 23 266
icourses.cn 23 471
maxtv.cn 23 678